AAL3025 KEYW-KDCA
Flight info
| Callsign | AAL3025 |
|---|---|
| Flight time | 2h 17m |
| Altitude | 34000 |
| Route | BUFTT1 MATLK Q87 ZERBO/N0457F350 Q87 RAYVO Q113 AARNN WAVES CAPSS4 |
| Aircraft | A319/M-SDE3FGHIRWY/LB1 |
Departure
| Time | 2026-05-06 19:30 |
|---|---|
| Airport | Key West International Airport (KEYW) |
Arrival
| Time | 2026-05-06 21:47 |
|---|---|
| Airport | Ronald Reagan Washington National Airport (KDCA) |
| Time | Latitude | Longitude | Altitude | Speed | Heading |
|---|---|---|---|---|---|
| 2026-05-06 19:03 | 24.55442 | -81.75378 | 12 ft | 0 kts | 180° |
| 2026-05-06 19:21 | 24.55454 | -81.75378 | 12 ft | 4 kts | 186° |
| 2026-05-06 19:21 | 24.55479 | -81.75370 | 14 ft | 4 kts | 219° |
| 2026-05-06 19:21 | 24.55490 | -81.75351 | 12 ft | 1 kts | 269° |
| 2026-05-06 19:25 | 24.55505 | -81.75378 | 12 ft | 8 kts | 328° |
| 2026-05-06 19:26 | 24.55533 | -81.75437 | 12 ft | 13 kts | 270° |
| 2026-05-06 19:26 | 24.55531 | -81.75567 | 12 ft | 21 kts | 270° |
| 2026-05-06 19:26 | 24.55529 | -81.75746 | 12 ft | 24 kts | 269° |
| 2026-05-06 19:26 | 24.55527 | -81.75932 | 12 ft | 25 kts | 269° |
| 2026-05-06 19:27 | 24.55524 | -81.76121 | 12 ft | 25 kts | 269° |
| 2026-05-06 19:27 | 24.55522 | -81.76310 | 12 ft | 25 kts | 269° |
| 2026-05-06 19:27 | 24.55521 | -81.76499 | 11 ft | 25 kts | 270° |
| 2026-05-06 19:27 | 24.55524 | -81.76636 | 12 ft | 9 kts | 291° |
| 2026-05-06 19:28 | 24.55584 | -81.76664 | 11 ft | 11 kts | 4° |
| 2026-05-06 19:28 | 24.55608 | -81.76598 | 11 ft | 11 kts | 91° |
| 2026-05-06 19:28 | 24.55608 | -81.76588 | 11 ft | 0 kts | 90° |
| 2026-05-06 19:29 | 24.55608 | -81.76587 | 11 ft | 1 kts | 90° |
| 2026-05-06 19:29 | 24.55608 | -81.76487 | 10 ft | 45 kts | 90° |
| 2026-05-06 19:30 | 24.55612 | -81.75834 | 13 ft | 124 kts | 89° |
| 2026-05-06 19:30 | 24.55616 | -81.74694 | 311 ft | 158 kts | 92° |
| 2026-05-06 19:30 | 24.55702 | -81.73470 | 985 ft | 167 kts | 68° |
| 2026-05-06 19:30 | 24.56564 | -81.72608 | 1714 ft | 177 kts | 22° |
| 2026-05-06 19:31 | 24.57825 | -81.72362 | 2167 ft | 195 kts | 5° |
| 2026-05-06 19:31 | 24.59247 | -81.72266 | 2501 ft | 216 kts | 4° |
| 2026-05-06 19:31 | 24.62580 | -81.72219 | 3395 ft | 259 kts | 359° |
| 2026-05-06 19:32 | 24.64443 | -81.72255 | 4039 ft | 274 kts | 0° |
| 2026-05-06 19:32 | 24.66344 | -81.72211 | 4998 ft | 274 kts | 2° |
| 2026-05-06 19:32 | 24.68260 | -81.72114 | 5891 ft | 278 kts | 3° |
| 2026-05-06 19:32 | 24.70203 | -81.71946 | 6714 ft | 283 kts | 10° |
| 2026-05-06 19:33 | 24.72078 | -81.71263 | 7538 ft | 287 kts | 27° |
| 2026-05-06 19:33 | 24.73727 | -81.70007 | 8359 ft | 291 kts | 44° |
| 2026-05-06 19:33 | 24.75123 | -81.68390 | 9179 ft | 293 kts | 47° |
| 2026-05-06 19:33 | 24.76528 | -81.66743 | 9955 ft | 297 kts | 46° |
| 2026-05-06 19:34 | 24.77955 | -81.65079 | 10647 ft | 305 kts | 46° |
| 2026-05-06 19:34 | 24.79467 | -81.63320 | 10877 ft | 328 kts | 45° |
| 2026-05-06 19:34 | 24.81080 | -81.61445 | 11283 ft | 342 kts | 45° |
| 2026-05-06 19:34 | 24.82727 | -81.59526 | 11997 ft | 346 kts | 45° |
| 2026-05-06 19:35 | 24.84390 | -81.57620 | 12810 ft | 345 kts | 44° |
| 2026-05-06 19:35 | 24.86094 | -81.55754 | 13582 ft | 346 kts | 42° |
| 2026-05-06 19:35 | 24.87823 | -81.53906 | 14291 ft | 348 kts | 42° |
| 2026-05-06 19:35 | 24.89571 | -81.52050 | 14955 ft | 350 kts | 41° |
| 2026-05-06 19:36 | 24.91329 | -81.50186 | 15601 ft | 352 kts | 41° |
| 2026-05-06 19:36 | 24.93097 | -81.48305 | 16239 ft | 355 kts | 41° |
| 2026-05-06 19:36 | 24.94874 | -81.46405 | 16861 ft | 357 kts | 41° |
| 2026-05-06 19:36 | 24.96661 | -81.44480 | 17466 ft | 360 kts | 41° |
| 2026-05-06 19:37 | 24.98455 | -81.42542 | 18052 ft | 363 kts | 41° |
| 2026-05-06 19:37 | 25.00260 | -81.40587 | 18624 ft | 365 kts | 41° |
| 2026-05-06 19:37 | 25.02080 | -81.38617 | 19164 ft | 369 kts | 41° |
| 2026-05-06 19:37 | 25.03296 | -81.37300 | 19513 ft | 371 kts | 41° |
| 2026-05-06 19:38 | 25.05780 | -81.34616 | 20183 ft | 376 kts | 40° |
| 2026-05-06 19:38 | 25.07659 | -81.32586 | 20668 ft | 381 kts | 41° |
| 2026-05-06 19:38 | 25.09560 | -81.30529 | 21151 ft | 384 kts | 40° |
| 2026-05-06 19:38 | 25.11478 | -81.28455 | 21625 ft | 388 kts | 40° |
| 2026-05-06 19:39 | 25.13393 | -81.26386 | 22087 ft | 392 kts | 40° |
| 2026-05-06 19:39 | 25.15345 | -81.24271 | 22537 ft | 396 kts | 40° |
| 2026-05-06 19:39 | 25.17345 | -81.22101 | 22986 ft | 399 kts | 40° |
| 2026-05-06 19:39 | 25.19307 | -81.19968 | 23406 ft | 403 kts | 40° |
| 2026-05-06 19:40 | 25.21341 | -81.17753 | 23828 ft | 407 kts | 40° |
| 2026-05-06 19:40 | 25.23338 | -81.15581 | 24237 ft | 410 kts | 40° |
| 2026-05-06 19:40 | 25.25404 | -81.13336 | 24649 ft | 413 kts | 40° |
| 2026-05-06 19:40 | 25.27438 | -81.11133 | 25044 ft | 416 kts | 40° |
| 2026-05-06 19:41 | 25.29508 | -81.08889 | 25441 ft | 418 kts | 40° |
| 2026-05-06 19:41 | 25.31588 | -81.06629 | 25836 ft | 421 kts | 40° |
| 2026-05-06 19:41 | 25.33681 | -81.04349 | 26222 ft | 423 kts | 40° |
| 2026-05-06 19:41 | 25.35948 | -81.02307 | 26594 ft | 420 kts | 29° |
| 2026-05-06 19:42 | 25.38509 | -81.00797 | 26968 ft | 416 kts | 18° |
| 2026-05-06 19:42 | 25.41264 | -80.99866 | 27330 ft | 414 kts | 7° |
| 2026-05-06 19:42 | 25.44118 | -80.99520 | 27689 ft | 412 kts | 359° |
| 2026-05-06 19:42 | 25.46994 | -80.99408 | 28056 ft | 415 kts | 359° |
| 2026-05-06 19:43 | 25.49882 | -80.99292 | 28437 ft | 417 kts | 359° |
| 2026-05-06 19:43 | 25.52788 | -80.99168 | 28802 ft | 419 kts | 359° |
| 2026-05-06 19:43 | 25.55703 | -80.99041 | 29155 ft | 421 kts | 359° |
| 2026-05-06 19:43 | 25.58635 | -80.98913 | 29498 ft | 423 kts | 359° |
| 2026-05-06 19:44 | 25.61587 | -80.98785 | 29832 ft | 425 kts | 359° |
| 2026-05-06 19:44 | 25.64547 | -80.98657 | 30173 ft | 427 kts | 359° |
| 2026-05-06 19:44 | 25.67517 | -80.98528 | 30491 ft | 429 kts | 359° |
| 2026-05-06 19:44 | 25.70508 | -80.98399 | 30812 ft | 431 kts | 359° |
| 2026-05-06 19:45 | 25.73508 | -80.98269 | 31098 ft | 433 kts | 359° |
| 2026-05-06 19:45 | 25.76527 | -80.98138 | 31398 ft | 435 kts | 359° |
| 2026-05-06 19:45 | 25.79545 | -80.98004 | 31806 ft | 434 kts | 359° |
| 2026-05-06 19:45 | 25.82559 | -80.97868 | 32234 ft | 432 kts | 358° |
| 2026-05-06 19:46 | 25.85556 | -80.97736 | 32655 ft | 431 kts | 358° |
| 2026-05-06 19:46 | 25.88549 | -80.97606 | 33066 ft | 430 kts | 358° |
| 2026-05-06 19:46 | 25.91538 | -80.97479 | 33470 ft | 429 kts | 358° |
| 2026-05-06 19:46 | 25.94512 | -80.97354 | 33872 ft | 428 kts | 358° |
| 2026-05-06 19:47 | 25.97486 | -80.97228 | 34056 ft | 427 kts | 358° |
| 2026-05-06 19:47 | 26.00434 | -80.97100 | 34091 ft | 420 kts | 358° |
| 2026-05-06 19:47 | 26.06221 | -80.96845 | 34091 ft | 414 kts | 357° |
| 2026-05-06 19:48 | 26.11008 | -80.96639 | 34089 ft | 414 kts | 357° |
| 2026-05-06 19:48 | 26.14919 | -80.96481 | 34093 ft | 427 kts | 357° |
| 2026-05-06 19:48 | 26.17915 | -80.96358 | 34096 ft | 435 kts | 357° |
| 2026-05-06 19:49 | 26.23016 | -80.96137 | 34093 ft | 446 kts | 358° |
| 2026-05-06 19:49 | 26.30295 | -80.95808 | 34101 ft | 449 kts | 358° |
| 2026-05-06 19:50 | 26.35485 | -80.95583 | 34099 ft | 449 kts | 357° |
| 2026-05-06 19:50 | 26.41731 | -80.95307 | 34091 ft | 449 kts | 358° |
| 2026-05-06 19:51 | 26.47972 | -80.94768 | 34090 ft | 451 kts | 1° |
| 2026-05-06 19:51 | 26.54221 | -80.94005 | 34091 ft | 451 kts | 1° |
| 2026-05-06 19:52 | 26.60465 | -80.93255 | 34085 ft | 451 kts | 1° |
| 2026-05-06 19:52 | 26.66701 | -80.92568 | 34082 ft | 450 kts | 0° |
| 2026-05-06 19:53 | 26.72936 | -80.91896 | 34076 ft | 450 kts | 0° |
| 2026-05-06 19:53 | 26.79172 | -80.91226 | 34075 ft | 450 kts | 0° |
| 2026-05-06 19:54 | 26.85405 | -80.90547 | 34076 ft | 450 kts | 0° |
| 2026-05-06 19:54 | 26.91632 | -80.89866 | 34078 ft | 450 kts | 0° |
| 2026-05-06 19:55 | 26.97869 | -80.89185 | 34078 ft | 450 kts | 0° |
| 2026-05-06 19:55 | 27.04058 | -80.88514 | 34076 ft | 450 kts | 0° |
| 2026-05-06 19:56 | 27.10295 | -80.87841 | 34072 ft | 450 kts | 0° |
| 2026-05-06 19:56 | 27.16526 | -80.87159 | 34066 ft | 450 kts | 0° |
| 2026-05-06 19:57 | 27.22745 | -80.86476 | 34062 ft | 449 kts | 0° |
| 2026-05-06 19:57 | 27.28961 | -80.85787 | 34059 ft | 449 kts | 0° |
| 2026-05-06 19:58 | 27.35099 | -80.86060 | 34058 ft | 438 kts | 346° |
| 2026-05-06 19:58 | 27.41113 | -80.87203 | 34060 ft | 438 kts | 346° |
| 2026-05-06 19:59 | 27.47136 | -80.88355 | 34370 ft | 439 kts | 346° |
| 2026-05-06 19:59 | 27.50142 | -80.88927 | 34734 ft | 438 kts | 346° |
| 2026-05-06 19:59 | 27.53146 | -80.89497 | 35076 ft | 437 kts | 346° |
| 2026-05-06 20:00 | 27.56147 | -80.90067 | 35405 ft | 437 kts | 345° |
| 2026-05-06 20:00 | 27.59141 | -80.90634 | 35742 ft | 436 kts | 345° |
| 2026-05-06 20:00 | 27.62134 | -80.91201 | 36022 ft | 436 kts | 345° |
| 2026-05-06 20:00 | 27.65124 | -80.91772 | 36076 ft | 435 kts | 345° |
| 2026-05-06 20:01 | 27.71091 | -80.92912 | 36083 ft | 434 kts | 345° |
| 2026-05-06 20:01 | 27.77052 | -80.94046 | 36073 ft | 434 kts | 345° |
| 2026-05-06 20:02 | 27.83010 | -80.95188 | 36072 ft | 434 kts | 345° |
| 2026-05-06 20:02 | 27.88966 | -80.96337 | 36091 ft | 434 kts | 345° |
| 2026-05-06 20:03 | 27.94922 | -80.97490 | 36091 ft | 434 kts | 345° |
| 2026-05-06 20:03 | 28.00884 | -80.98642 | 36088 ft | 435 kts | 345° |
| 2026-05-06 20:04 | 28.06836 | -80.99801 | 36095 ft | 434 kts | 344° |
| 2026-05-06 20:04 | 28.12784 | -81.00962 | 36099 ft | 433 kts | 344° |
| 2026-05-06 20:05 | 28.18717 | -81.02115 | 36101 ft | 433 kts | 344° |
| 2026-05-06 20:05 | 28.24650 | -81.03263 | 36098 ft | 432 kts | 344° |
| 2026-05-06 20:06 | 28.30542 | -81.04415 | 36094 ft | 432 kts | 344° |
| 2026-05-06 20:06 | 28.36450 | -81.05656 | 36093 ft | 428 kts | 339° |
| 2026-05-06 20:07 | 28.42031 | -81.07980 | 36095 ft | 424 kts | 334° |
| 2026-05-06 20:07 | 28.47550 | -81.10369 | 36099 ft | 424 kts | 334° |
| 2026-05-06 20:08 | 28.53072 | -81.12752 | 36096 ft | 425 kts | 334° |
| 2026-05-06 20:08 | 28.58564 | -81.15116 | 36099 ft | 425 kts | 334° |
| 2026-05-06 20:09 | 28.64086 | -81.17504 | 36099 ft | 424 kts | 334° |
| 2026-05-06 20:09 | 28.69602 | -81.19898 | 36094 ft | 424 kts | 334° |
| 2026-05-06 20:10 | 28.75116 | -81.22292 | 36085 ft | 424 kts | 334° |
| 2026-05-06 20:10 | 28.80631 | -81.24688 | 36080 ft | 424 kts | 334° |
| 2026-05-06 20:11 | 28.86132 | -81.27081 | 36077 ft | 423 kts | 334° |
| 2026-05-06 20:11 | 28.91704 | -81.29297 | 36079 ft | 430 kts | 342° |
| 2026-05-06 20:12 | 28.97725 | -81.29941 | 36077 ft | 436 kts | 349° |
| 2026-05-06 20:12 | 29.03779 | -81.30415 | 36076 ft | 435 kts | 349° |
| 2026-05-06 20:13 | 29.09822 | -81.30894 | 36073 ft | 435 kts | 349° |
| 2026-05-06 20:13 | 29.15855 | -81.31374 | 36072 ft | 435 kts | 348° |
| 2026-05-06 20:14 | 29.21898 | -81.31856 | 36073 ft | 435 kts | 348° |
| 2026-05-06 20:14 | 29.27932 | -81.32336 | 36074 ft | 435 kts | 348° |
| 2026-05-06 20:15 | 29.33979 | -81.32737 | 36078 ft | 435 kts | 349° |
| 2026-05-06 20:15 | 29.40028 | -81.33064 | 36083 ft | 435 kts | 349° |
| 2026-05-06 20:16 | 29.46084 | -81.33392 | 36086 ft | 435 kts | 349° |
| 2026-05-06 20:16 | 29.52129 | -81.33742 | 36087 ft | 435 kts | 349° |
| 2026-05-06 20:17 | 29.58179 | -81.34106 | 36086 ft | 435 kts | 349° |
| 2026-05-06 20:17 | 29.64222 | -81.34480 | 36086 ft | 435 kts | 349° |
| 2026-05-06 20:18 | 29.70267 | -81.34842 | 36084 ft | 435 kts | 349° |
| 2026-05-06 20:18 | 29.76312 | -81.35192 | 36081 ft | 435 kts | 349° |
| 2026-05-06 20:19 | 29.82348 | -81.35545 | 36079 ft | 434 kts | 349° |
| 2026-05-06 20:19 | 29.88346 | -81.35899 | 36082 ft | 434 kts | 349° |
| 2026-05-06 20:20 | 29.94417 | -81.36258 | 36084 ft | 434 kts | 349° |
| 2026-05-06 20:20 | 30.00452 | -81.36615 | 36082 ft | 434 kts | 349° |
| 2026-05-06 20:21 | 30.06439 | -81.36973 | 36086 ft | 433 kts | 348° |
| 2026-05-06 20:21 | 30.12456 | -81.37341 | 36087 ft | 433 kts | 348° |
| 2026-05-06 20:22 | 30.18508 | -81.37703 | 36082 ft | 432 kts | 348° |
| 2026-05-06 20:22 | 30.24473 | -81.38052 | 36080 ft | 433 kts | 348° |
| 2026-05-06 20:23 | 30.30486 | -81.38405 | 36083 ft | 432 kts | 348° |
| 2026-05-06 20:23 | 30.36493 | -81.38766 | 36087 ft | 432 kts | 348° |
| 2026-05-06 20:24 | 30.42493 | -81.39137 | 36087 ft | 432 kts | 348° |
| 2026-05-06 20:24 | 30.48503 | -81.39493 | 36091 ft | 433 kts | 348° |
| 2026-05-06 20:25 | 30.54521 | -81.39813 | 36088 ft | 433 kts | 348° |
| 2026-05-06 20:25 | 30.60546 | -81.40117 | 36083 ft | 434 kts | 348° |
| 2026-05-06 20:26 | 30.66575 | -81.40428 | 36078 ft | 433 kts | 348° |
| 2026-05-06 20:26 | 30.72601 | -81.40754 | 36077 ft | 433 kts | 348° |
| 2026-05-06 20:27 | 30.78620 | -81.41078 | 36075 ft | 433 kts | 348° |
| 2026-05-06 20:27 | 30.84638 | -81.41397 | 36072 ft | 433 kts | 348° |
| 2026-05-06 20:28 | 30.90657 | -81.41711 | 36074 ft | 433 kts | 348° |
| 2026-05-06 20:28 | 30.96669 | -81.42026 | 36067 ft | 432 kts | 348° |
| 2026-05-06 20:29 | 31.02670 | -81.42347 | 36063 ft | 432 kts | 348° |
| 2026-05-06 20:29 | 31.08679 | -81.42666 | 36058 ft | 432 kts | 348° |
| 2026-05-06 20:30 | 31.17679 | -81.43156 | 36044 ft | 432 kts | 348° |
| 2026-05-06 20:31 | 31.23712 | -81.43322 | 36047 ft | 442 kts | 356° |
| 2026-05-06 20:31 | 31.26773 | -81.42603 | 36041 ft | 459 kts | 8° |
| 2026-05-06 20:31 | 31.29761 | -81.41136 | 36049 ft | 469 kts | 14° |
| 2026-05-06 20:32 | 31.35683 | -81.37911 | 36037 ft | 470 kts | 14° |
| 2026-05-06 20:32 | 31.41618 | -81.34685 | 36035 ft | 470 kts | 14° |
| 2026-05-06 20:33 | 31.46551 | -81.32004 | 36034 ft | 470 kts | 14° |
| 2026-05-06 20:33 | 31.52492 | -81.28781 | 36034 ft | 471 kts | 14° |
| 2026-05-06 20:34 | 31.59399 | -81.25020 | 36032 ft | 471 kts | 14° |
| 2026-05-06 20:34 | 31.65337 | -81.21767 | 36032 ft | 471 kts | 14° |
| 2026-05-06 20:35 | 31.71273 | -81.18530 | 36035 ft | 470 kts | 14° |
| 2026-05-06 20:35 | 31.77206 | -81.15298 | 36033 ft | 470 kts | 14° |
| 2026-05-06 20:36 | 31.82171 | -81.12575 | 36033 ft | 470 kts | 14° |
| 2026-05-06 20:36 | 31.88101 | -81.09317 | 36031 ft | 470 kts | 14° |
| 2026-05-06 20:37 | 31.93988 | -81.06086 | 36028 ft | 470 kts | 14° |
| 2026-05-06 20:37 | 31.99914 | -81.02827 | 36025 ft | 470 kts | 14° |
| 2026-05-06 20:38 | 32.05828 | -80.99541 | 36027 ft | 470 kts | 14° |
| 2026-05-06 20:38 | 32.11733 | -80.96219 | 36028 ft | 470 kts | 14° |
| 2026-05-06 20:39 | 32.17634 | -80.92904 | 36032 ft | 470 kts | 14° |
| 2026-05-06 20:39 | 32.23548 | -80.89595 | 36048 ft | 470 kts | 14° |
| 2026-05-06 20:40 | 32.29460 | -80.86284 | 36049 ft | 470 kts | 14° |
| 2026-05-06 20:40 | 32.35364 | -80.82961 | 36060 ft | 470 kts | 14° |
| 2026-05-06 20:41 | 32.41263 | -80.79625 | 36066 ft | 470 kts | 14° |
| 2026-05-06 20:41 | 32.47162 | -80.76291 | 36067 ft | 469 kts | 14° |
| 2026-05-06 20:42 | 32.53055 | -80.72961 | 36065 ft | 469 kts | 14° |
| 2026-05-06 20:42 | 32.58946 | -80.69632 | 36063 ft | 469 kts | 14° |
| 2026-05-06 20:43 | 32.64830 | -80.66294 | 36066 ft | 469 kts | 14° |
| 2026-05-06 20:43 | 32.70726 | -80.62947 | 36056 ft | 469 kts | 14° |
| 2026-05-06 20:44 | 32.76595 | -80.59542 | 36054 ft | 470 kts | 15° |
| 2026-05-06 20:44 | 32.82443 | -80.56040 | 36040 ft | 471 kts | 16° |
| 2026-05-06 20:45 | 32.88291 | -80.52529 | 36034 ft | 471 kts | 15° |
| 2026-05-06 20:45 | 32.94146 | -80.49025 | 36037 ft | 471 kts | 15° |
| 2026-05-06 20:46 | 33.00006 | -80.45535 | 36034 ft | 471 kts | 15° |
| 2026-05-06 20:46 | 33.05865 | -80.42048 | 36031 ft | 471 kts | 15° |
| 2026-05-06 20:47 | 33.11733 | -80.38544 | 36028 ft | 471 kts | 15° |
| 2026-05-06 20:47 | 33.17591 | -80.35040 | 36027 ft | 471 kts | 15° |
| 2026-05-06 20:48 | 33.23455 | -80.31517 | 36022 ft | 472 kts | 15° |
| 2026-05-06 20:48 | 33.29317 | -80.27990 | 36024 ft | 471 kts | 15° |
| 2026-05-06 20:49 | 33.35130 | -80.24486 | 36028 ft | 471 kts | 16° |
| 2026-05-06 20:49 | 33.40981 | -80.20957 | 36030 ft | 471 kts | 15° |
| 2026-05-06 20:50 | 33.46829 | -80.17431 | 36035 ft | 471 kts | 15° |
| 2026-05-06 20:50 | 33.52679 | -80.13903 | 36038 ft | 471 kts | 15° |
| 2026-05-06 20:51 | 33.58519 | -80.10368 | 36043 ft | 471 kts | 15° |
| 2026-05-06 20:51 | 33.64325 | -80.06684 | 36034 ft | 480 kts | 23° |
| 2026-05-06 20:51 | 33.66991 | -80.04166 | 36037 ft | 493 kts | 31° |
| 2026-05-06 20:52 | 33.69576 | -80.01450 | 36036 ft | 493 kts | 31° |
| 2026-05-06 20:52 | 33.74735 | -79.96032 | 36032 ft | 493 kts | 31° |
| 2026-05-06 20:53 | 33.79905 | -79.90605 | 36028 ft | 493 kts | 31° |
| 2026-05-06 20:53 | 33.85074 | -79.85175 | 36026 ft | 493 kts | 31° |
| 2026-05-06 20:54 | 33.90233 | -79.79743 | 36019 ft | 493 kts | 31° |
| 2026-05-06 20:54 | 33.95396 | -79.74300 | 36015 ft | 493 kts | 31° |
| 2026-05-06 20:55 | 34.00548 | -79.68856 | 36017 ft | 493 kts | 31° |
| 2026-05-06 20:55 | 34.05708 | -79.63395 | 36016 ft | 493 kts | 31° |
| 2026-05-06 20:56 | 34.10861 | -79.57928 | 36013 ft | 493 kts | 31° |
| 2026-05-06 20:56 | 34.16013 | -79.52456 | 36013 ft | 494 kts | 31° |
| 2026-05-06 20:57 | 34.21172 | -79.46967 | 36008 ft | 494 kts | 31° |
| 2026-05-06 20:57 | 34.26325 | -79.41475 | 36006 ft | 494 kts | 31° |
| 2026-05-06 20:58 | 34.31476 | -79.35974 | 36008 ft | 494 kts | 31° |
| 2026-05-06 20:58 | 34.36632 | -79.30462 | 36008 ft | 494 kts | 31° |
| 2026-05-06 20:59 | 34.41804 | -79.24983 | 36003 ft | 490 kts | 27° |
| 2026-05-06 20:59 | 34.44600 | -79.22746 | 36003 ft | 475 kts | 17° |
| 2026-05-06 20:59 | 34.47529 | -79.20946 | 36005 ft | 472 kts | 16° |
| 2026-05-06 21:00 | 34.53404 | -79.17377 | 36006 ft | 473 kts | 16° |
| 2026-05-06 21:00 | 34.59278 | -79.13783 | 36006 ft | 473 kts | 16° |
| 2026-05-06 21:01 | 34.65140 | -79.10185 | 36003 ft | 472 kts | 16° |
| 2026-05-06 21:01 | 34.71008 | -79.06589 | 36003 ft | 472 kts | 16° |
| 2026-05-06 21:02 | 34.76877 | -79.02986 | 36004 ft | 472 kts | 16° |
| 2026-05-06 21:02 | 34.82735 | -78.99385 | 35997 ft | 473 kts | 16° |
| 2026-05-06 21:03 | 34.88610 | -78.95759 | 35990 ft | 473 kts | 16° |
| 2026-05-06 21:03 | 34.94479 | -78.92127 | 35977 ft | 473 kts | 17° |
| 2026-05-06 21:04 | 35.00343 | -78.88497 | 35974 ft | 473 kts | 17° |
| 2026-05-06 21:04 | 35.06214 | -78.84856 | 35969 ft | 473 kts | 17° |
| 2026-05-06 21:05 | 35.12092 | -78.81222 | 35966 ft | 475 kts | 17° |
| 2026-05-06 21:05 | 35.17944 | -78.77589 | 35969 ft | 475 kts | 17° |
| 2026-05-06 21:06 | 35.23840 | -78.73919 | 35967 ft | 475 kts | 17° |
| 2026-05-06 21:06 | 35.29732 | -78.70245 | 35972 ft | 476 kts | 17° |
| 2026-05-06 21:07 | 35.35632 | -78.66558 | 35978 ft | 477 kts | 17° |
| 2026-05-06 21:07 | 35.41550 | -78.62854 | 35988 ft | 477 kts | 17° |
| 2026-05-06 21:08 | 35.47472 | -78.59147 | 35996 ft | 478 kts | 17° |
| 2026-05-06 21:08 | 35.53395 | -78.55429 | 35986 ft | 478 kts | 17° |
| 2026-05-06 21:09 | 35.59324 | -78.51704 | 35976 ft | 479 kts | 17° |
| 2026-05-06 21:09 | 35.65251 | -78.47970 | 35972 ft | 479 kts | 17° |
| 2026-05-06 21:10 | 35.71174 | -78.44231 | 35963 ft | 479 kts | 17° |
| 2026-05-06 21:10 | 35.77114 | -78.40480 | 35952 ft | 480 kts | 17° |
| 2026-05-06 21:11 | 35.83076 | -78.36723 | 35945 ft | 482 kts | 17° |
| 2026-05-06 21:11 | 35.89054 | -78.32940 | 35945 ft | 484 kts | 17° |
| 2026-05-06 21:12 | 35.95051 | -78.29131 | 35953 ft | 485 kts | 17° |
| 2026-05-06 21:12 | 36.01058 | -78.25311 | 35958 ft | 486 kts | 17° |
| 2026-05-06 21:13 | 36.07071 | -78.21494 | 35958 ft | 487 kts | 17° |
| 2026-05-06 21:13 | 36.13097 | -78.17654 | 35961 ft | 487 kts | 17° |
| 2026-05-06 21:14 | 36.19124 | -78.13805 | 35961 ft | 487 kts | 17° |
| 2026-05-06 21:14 | 36.25147 | -78.09959 | 35961 ft | 487 kts | 17° |
| 2026-05-06 21:15 | 36.31175 | -78.06101 | 35962 ft | 487 kts | 17° |
| 2026-05-06 21:15 | 36.37193 | -78.02235 | 35963 ft | 486 kts | 15° |
| 2026-05-06 21:16 | 36.43378 | -77.99207 | 35962 ft | 476 kts | 10° |
| 2026-05-06 21:16 | 36.49553 | -77.96347 | 35954 ft | 477 kts | 10° |
| 2026-05-06 21:17 | 36.55775 | -77.93466 | 35955 ft | 477 kts | 10° |
| 2026-05-06 21:17 | 36.62000 | -77.90575 | 35960 ft | 478 kts | 10° |
| 2026-05-06 21:18 | 36.68237 | -77.87645 | 35961 ft | 479 kts | 10° |
| 2026-05-06 21:18 | 36.74475 | -77.84709 | 35952 ft | 480 kts | 10° |
| 2026-05-06 21:18 | 36.77597 | -77.83243 | 35595 ft | 478 kts | 10° |
| 2026-05-06 21:19 | 36.80683 | -77.81792 | 35288 ft | 469 kts | 10° |
| 2026-05-06 21:19 | 36.83708 | -77.80362 | 35035 ft | 460 kts | 10° |
| 2026-05-06 21:19 | 36.86655 | -77.78973 | 34772 ft | 453 kts | 10° |
| 2026-05-06 21:19 | 36.89597 | -77.77596 | 34258 ft | 451 kts | 10° |
| 2026-05-06 21:20 | 36.92532 | -77.76229 | 33713 ft | 450 kts | 11° |
| 2026-05-06 21:20 | 36.94473 | -77.75324 | 33366 ft | 449 kts | 11° |
| 2026-05-06 21:20 | 36.97398 | -77.73959 | 32841 ft | 448 kts | 11° |
| 2026-05-06 21:20 | 37.01304 | -77.72123 | 32131 ft | 448 kts | 11° |
| 2026-05-06 21:21 | 37.04217 | -77.70743 | 31596 ft | 447 kts | 12° |
| 2026-05-06 21:21 | 37.07095 | -77.69376 | 31084 ft | 446 kts | 12° |
| 2026-05-06 21:21 | 37.09018 | -77.68462 | 30740 ft | 445 kts | 12° |
| 2026-05-06 21:21 | 37.12888 | -77.66626 | 30062 ft | 443 kts | 12° |
| 2026-05-06 21:22 | 37.14801 | -77.65719 | 29728 ft | 443 kts | 13° |
| 2026-05-06 21:22 | 37.17670 | -77.64358 | 29247 ft | 441 kts | 13° |
| 2026-05-06 21:22 | 37.20534 | -77.63001 | 28757 ft | 439 kts | 12° |
| 2026-05-06 21:22 | 37.23390 | -77.61645 | 28287 ft | 438 kts | 12° |
| 2026-05-06 21:23 | 37.26232 | -77.60296 | 27814 ft | 436 kts | 12° |
| 2026-05-06 21:23 | 37.29062 | -77.58950 | 27338 ft | 434 kts | 12° |
| 2026-05-06 21:23 | 37.31875 | -77.57612 | 26858 ft | 432 kts | 12° |
| 2026-05-06 21:23 | 37.34683 | -77.56275 | 26371 ft | 431 kts | 12° |
| 2026-05-06 21:24 | 37.37479 | -77.54943 | 25875 ft | 429 kts | 12° |
| 2026-05-06 21:24 | 37.40258 | -77.53617 | 25536 ft | 424 kts | 12° |
| 2026-05-06 21:24 | 37.43017 | -77.52295 | 25055 ft | 423 kts | 12° |
| 2026-05-06 21:24 | 37.45770 | -77.50977 | 24530 ft | 424 kts | 13° |
| 2026-05-06 21:25 | 37.48525 | -77.49657 | 24015 ft | 423 kts | 13° |
| 2026-05-06 21:25 | 37.51261 | -77.48354 | 23721 ft | 419 kts | 12° |
| 2026-05-06 21:25 | 37.53979 | -77.47058 | 23312 ft | 416 kts | 12° |
| 2026-05-06 21:25 | 37.56637 | -77.45782 | 22815 ft | 411 kts | 12° |
| 2026-05-06 21:26 | 37.59322 | -77.44598 | 22288 ft | 402 kts | 6° |
| 2026-05-06 21:26 | 37.61985 | -77.43782 | 22059 ft | 385 kts | 5° |
| 2026-05-06 21:26 | 37.64551 | -77.42985 | 21566 ft | 376 kts | 4° |
| 2026-05-06 21:26 | 37.67079 | -77.42199 | 20986 ft | 371 kts | 4° |
| 2026-05-06 21:27 | 37.69548 | -77.41434 | 20462 ft | 365 kts | 4° |
| 2026-05-06 21:27 | 37.71998 | -77.40674 | 20104 ft | 360 kts | 4° |
| 2026-05-06 21:27 | 37.74423 | -77.39924 | 19756 ft | 358 kts | 4° |
| 2026-05-06 21:27 | 37.76828 | -77.39179 | 19408 ft | 355 kts | 4° |
| 2026-05-06 21:28 | 37.79225 | -77.38441 | 19055 ft | 352 kts | 4° |
| 2026-05-06 21:28 | 37.81607 | -77.37713 | 18705 ft | 351 kts | 4° |
| 2026-05-06 21:28 | 37.83971 | -77.36988 | 18359 ft | 349 kts | 4° |
| 2026-05-06 21:28 | 37.86323 | -77.36263 | 18016 ft | 347 kts | 5° |
| 2026-05-06 21:29 | 37.88660 | -77.35538 | 17670 ft | 345 kts | 5° |
| 2026-05-06 21:29 | 37.90985 | -77.34816 | 17321 ft | 343 kts | 5° |
| 2026-05-06 21:29 | 37.93293 | -77.34102 | 16971 ft | 341 kts | 5° |
| 2026-05-06 21:29 | 37.95588 | -77.33396 | 16638 ft | 339 kts | 5° |
| 2026-05-06 21:30 | 37.97876 | -77.32695 | 16303 ft | 338 kts | 5° |
| 2026-05-06 21:30 | 38.00155 | -77.31996 | 15965 ft | 337 kts | 5° |
| 2026-05-06 21:30 | 38.02430 | -77.31298 | 15627 ft | 336 kts | 5° |
| 2026-05-06 21:30 | 38.04700 | -77.30602 | 15293 ft | 335 kts | 5° |
| 2026-05-06 21:31 | 38.06959 | -77.29907 | 14962 ft | 334 kts | 6° |
| 2026-05-06 21:31 | 38.09215 | -77.29209 | 14632 ft | 333 kts | 6° |
| 2026-05-06 21:31 | 38.11429 | -77.28512 | 14299 ft | 332 kts | 6° |
| 2026-05-06 21:31 | 38.13700 | -77.27794 | 13962 ft | 331 kts | 6° |
| 2026-05-06 21:32 | 38.15895 | -77.27099 | 13630 ft | 329 kts | 7° |
| 2026-05-06 21:32 | 38.20327 | -77.25701 | 12983 ft | 327 kts | 7° |
| 2026-05-06 21:32 | 38.22519 | -77.24948 | 12728 ft | 326 kts | 9° |
| 2026-05-06 21:33 | 38.24692 | -77.24139 | 12477 ft | 325 kts | 10° |
| 2026-05-06 21:33 | 38.26858 | -77.23300 | 12219 ft | 324 kts | 11° |
| 2026-05-06 21:33 | 38.29011 | -77.22455 | 11960 ft | 324 kts | 11° |
| 2026-05-06 21:33 | 38.31161 | -77.21613 | 11695 ft | 323 kts | 11° |
| 2026-05-06 21:34 | 38.33309 | -77.20780 | 11441 ft | 322 kts | 11° |
| 2026-05-06 21:34 | 38.35452 | -77.19959 | 11192 ft | 321 kts | 11° |
| 2026-05-06 21:34 | 38.37591 | -77.19148 | 10951 ft | 320 kts | 11° |
| 2026-05-06 21:34 | 38.39720 | -77.18335 | 10881 ft | 320 kts | 11° |
| 2026-05-06 21:35 | 38.41848 | -77.17515 | 10784 ft | 319 kts | 11° |
| 2026-05-06 21:35 | 38.43974 | -77.16687 | 10680 ft | 319 kts | 11° |
| 2026-05-06 21:35 | 38.46097 | -77.15862 | 10585 ft | 320 kts | 11° |
| 2026-05-06 21:35 | 38.48220 | -77.15041 | 10476 ft | 319 kts | 10° |
| 2026-05-06 21:36 | 38.50339 | -77.14226 | 10374 ft | 317 kts | 11° |
| 2026-05-06 21:36 | 38.52457 | -77.13411 | 10268 ft | 317 kts | 10° |
| 2026-05-06 21:36 | 38.54572 | -77.12594 | 10163 ft | 318 kts | 11° |
| 2026-05-06 21:36 | 38.56683 | -77.11773 | 10057 ft | 317 kts | 11° |
| 2026-05-06 21:37 | 38.58784 | -77.10959 | 9850 ft | 316 kts | 10° |
| 2026-05-06 21:37 | 38.60884 | -77.10147 | 9495 ft | 314 kts | 10° |
| 2026-05-06 21:37 | 38.62939 | -77.09349 | 9174 ft | 311 kts | 10° |
| 2026-05-06 21:37 | 38.65005 | -77.08551 | 8855 ft | 310 kts | 10° |
| 2026-05-06 21:38 | 38.67061 | -77.07763 | 8543 ft | 308 kts | 10° |
| 2026-05-06 21:38 | 38.69123 | -77.07097 | 8231 ft | 302 kts | 1° |
| 2026-05-06 21:38 | 38.71166 | -77.06868 | 7931 ft | 299 kts | 357° |
| 2026-05-06 21:38 | 38.73239 | -77.06663 | 7622 ft | 297 kts | 357° |
| 2026-05-06 21:39 | 38.75282 | -77.06587 | 7321 ft | 289 kts | 347° |
| 2026-05-06 21:39 | 38.77199 | -77.07125 | 7026 ft | 277 kts | 332° |
| 2026-05-06 21:39 | 38.78880 | -77.08219 | 6747 ft | 268 kts | 319° |
| 2026-05-06 21:39 | 38.80447 | -77.09519 | 6473 ft | 268 kts | 319° |
| 2026-05-06 21:40 | 38.82013 | -77.10802 | 6204 ft | 266 kts | 320° |
| 2026-05-06 21:40 | 38.83512 | -77.12154 | 5924 ft | 261 kts | 311° |
| 2026-05-06 21:40 | 38.84818 | -77.13753 | 5462 ft | 261 kts | 309° |
| 2026-05-06 21:40 | 38.86118 | -77.15367 | 5167 ft | 256 kts | 309° |
| 2026-05-06 21:41 | 38.87373 | -77.16920 | 5041 ft | 245 kts | 309° |
| 2026-05-06 21:41 | 38.88569 | -77.18405 | 4915 ft | 234 kts | 309° |
| 2026-05-06 21:41 | 38.89713 | -77.19830 | 4786 ft | 224 kts | 308° |
| 2026-05-06 21:41 | 38.90807 | -77.21196 | 4637 ft | 216 kts | 308° |
| 2026-05-06 21:42 | 38.91883 | -77.22545 | 4246 ft | 220 kts | 308° |
| 2026-05-06 21:42 | 38.93004 | -77.23958 | 3641 ft | 230 kts | 309° |
| 2026-05-06 21:42 | 38.94392 | -77.25015 | 3198 ft | 240 kts | 343° |
| 2026-05-06 21:42 | 38.96051 | -77.24936 | 3044 ft | 242 kts | 13° |
| 2026-05-06 21:43 | 38.97518 | -77.23874 | 2985 ft | 247 kts | 48° |
| 2026-05-06 21:43 | 38.98177 | -77.21953 | 2979 ft | 230 kts | 91° |
| 2026-05-06 21:43 | 38.97957 | -77.19991 | 2901 ft | 217 kts | 110° |
| 2026-05-06 21:43 | 38.97527 | -77.18193 | 2813 ft | 205 kts | 114° |
| 2026-05-06 21:44 | 38.97090 | -77.16509 | 2743 ft | 192 kts | 120° |
| 2026-05-06 21:44 | 38.96411 | -77.15167 | 2685 ft | 172 kts | 139° |
| 2026-05-06 21:44 | 38.95583 | -77.14120 | 2501 ft | 163 kts | 150° |
| 2026-05-06 21:44 | 38.94706 | -77.13234 | 2313 ft | 159 kts | 147° |
| 2026-05-06 21:45 | 38.93856 | -77.12319 | 2120 ft | 162 kts | 146° |
| 2026-05-06 21:45 | 38.92852 | -77.11471 | 1898 ft | 176 kts | 160° |
| 2026-05-06 21:45 | 38.91739 | -77.10776 | 1657 ft | 180 kts | 156° |
| 2026-05-06 21:45 | 38.90826 | -77.09699 | 1410 ft | 185 kts | 127° |
| 2026-05-06 21:46 | 38.90360 | -77.08152 | 1165 ft | 185 kts | 112° |
| 2026-05-06 21:46 | 38.89726 | -77.06815 | 929 ft | 168 kts | 136° |
| 2026-05-06 21:46 | 38.88986 | -77.05773 | 703 ft | 152 kts | 136° |
| 2026-05-06 21:46 | 38.88284 | -77.04800 | 513 ft | 144 kts | 139° |
| 2026-05-06 21:47 | 38.87509 | -77.04087 | 310 ft | 132 kts | 166° |
| 2026-05-06 21:47 | 38.86607 | -77.03922 | 134 ft | 132 kts | 182° |
| 2026-05-06 21:47 | 38.85701 | -77.03834 | 26 ft | 123 kts | 176° |
| 2026-05-06 21:47 | 38.85091 | -77.03774 | 26 ft | 45 kts | 175° |
| 2026-05-06 21:48 | 38.84925 | -77.03775 | 24 ft | 20 kts | 201° |
| 2026-05-06 21:48 | 38.84878 | -77.03874 | 26 ft | 0 kts | 265° |
| 2026-05-06 21:48 | 38.84878 | -77.03875 | 24 ft | 1 kts | 265° |
| 2026-05-06 21:49 | 38.84875 | -77.03922 | 24 ft | 7 kts | 265° |
| 2026-05-06 21:49 | 38.84912 | -77.03956 | 24 ft | 9 kts | 358° |
| 2026-05-06 21:49 | 38.84981 | -77.03960 | 26 ft | 12 kts | 357° |
| 2026-05-06 21:49 | 38.85071 | -77.03967 | 26 ft | 14 kts | 356° |
| 2026-05-06 21:50 | 38.85171 | -77.03976 | 24 ft | 15 kts | 355° |
| 2026-05-06 21:50 | 38.85278 | -77.03989 | 26 ft | 16 kts | 357° |
| 2026-05-06 21:50 | 38.85335 | -77.04040 | 24 ft | 9 kts | 260° |
| 2026-05-06 21:50 | 38.85314 | -77.04120 | 24 ft | 10 kts | 252° |
| 2026-05-06 21:51 | 38.85297 | -77.04173 | 24 ft | 5 kts | 226° |
| 2026-05-06 21:51 | 38.85265 | -77.04166 | 25 ft | 2 kts | 161° |
| 2026-05-06 21:51 | 38.85248 | -77.04158 | 26 ft | 0 kts | 162° |